createdAt,value
2019-05-18T00:00:44.644Z,7.00
2019-05-18T00:03:15.201Z,5.08
2019-05-18T00:05:45.663Z,6.85
2019-05-18T00:08:16.202Z,5.62
2019-05-18T00:10:46.783Z,6.42
2019-05-18T00:13:17.302Z,6.67
2019-05-18T00:15:47.858Z,5.37
2019-05-18T00:18:18.492Z,5.45
2019-05-18T00:20:49.058Z,5.62
2019-05-18T00:23:19.618Z,6.05
2019-05-18T00:25:50.256Z,5.62
2019-05-18T00:28:20.809Z,6.03
2019-05-18T00:30:51.486Z,5.65
2019-05-18T00:33:22.093Z,5.90
2019-05-18T00:35:52.602Z,6.17
2019-05-18T00:38:23.316Z,5.50
2019-05-18T00:40:53.854Z,5.60
2019-05-18T00:43:25.850Z,5.10
2019-05-18T00:45:56.394Z,5.92
2019-05-18T00:48:27.055Z,5.60
2019-05-18T00:50:57.590Z,7.37
2019-05-18T00:53:28.138Z,5.20
2019-05-18T00:56:00.026Z,5.92
2019-05-18T00:58:30.853Z,5.62
2019-05-18T01:01:01.411Z,5.28
2019-05-18T01:03:33.171Z,5.00
2019-05-18T01:06:03.753Z,4.97
2019-05-18T01:08:35.436Z,4.90
2019-05-18T01:11:07.301Z,5.20
2019-05-18T01:13:37.857Z,5.33
2019-05-18T01:16:09.470Z,6.40
2019-05-18T01:18:41.325Z,5.37
2019-05-18T01:21:11.866Z,5.30
2019-05-18T01:23:42.511Z,5.50
2019-05-18T01:26:13.087Z,5.67
2019-05-18T01:28:43.615Z,7.97
2019-05-18T01:31:14.335Z,5.25
2019-05-18T01:33:44.872Z,4.83
2019-05-18T01:36:15.458Z,5.37
2019-05-18T01:38:45.997Z,5.25
2019-05-18T01:41:16.532Z,5.60
2019-05-18T01:43:47.042Z,5.05
2019-05-18T01:46:17.627Z,5.25
2019-05-18T01:48:49.233Z,5.20
2019-05-18T01:51:20.900Z,5.00
2019-05-18T01:53:51.452Z,5.70
2019-05-18T01:56:22.014Z,4.85
2019-05-18T01:58:52.708Z,5.37
2019-05-18T02:01:24.758Z,6.72
2019-05-18T02:03:55.426Z,5.10
2019-05-18T02:06:26.086Z,5.15
2019-05-18T02:08:56.788Z,5.45
2019-05-18T02:11:27.330Z,5.40
2019-05-18T02:13:57.876Z,4.75
2019-05-18T02:16:28.441Z,6.85
2019-05-18T02:18:58.968Z,4.78
2019-05-18T02:21:29.537Z,4.75
2019-05-18T02:24:01.302Z,4.50
2019-05-18T02:26:31.993Z,4.37
2019-05-18T02:29:03.166Z,4.97
2019-05-18T02:31:33.759Z,4.95
2019-05-18T02:34:04.383Z,4.42
2019-05-18T02:36:36.847Z,4.72
2019-05-18T02:39:09.365Z,4.60
2019-05-18T02:41:40.071Z,4.62
2019-05-18T02:44:10.832Z,4.20
2019-05-18T02:46:41.462Z,4.55
2019-05-18T02:49:11.985Z,4.80
2019-05-18T02:51:43.662Z,4.00
2019-05-18T02:54:15.685Z,4.72
2019-05-18T02:56:46.481Z,4.78
2019-05-18T02:59:17.127Z,4.72
2019-05-18T03:01:47.709Z,4.58
2019-05-18T03:04:18.231Z,5.25
2019-05-18T03:06:48.794Z,4.92
2019-05-18T03:09:19.383Z,4.50
2019-05-18T03:11:49.989Z,5.25
2019-05-18T03:14:20.601Z,4.53
2019-05-18T03:16:51.377Z,4.62
2019-05-18T03:19:21.920Z,4.83
2019-05-18T03:21:52.516Z,4.53
2019-05-18T03:24:24.541Z,5.33
2019-05-18T03:26:55.095Z,4.47
2019-05-18T03:29:25.663Z,4.80
2019-05-18T03:31:56.290Z,4.55
2019-05-18T03:34:27.138Z,5.03
2019-05-18T03:37:16.745Z,5.65
2019-05-18T03:39:47.570Z,5.50
2019-05-18T03:42:18.144Z,4.80
2019-05-18T03:44:48.897Z,4.53
2019-05-18T03:47:19.821Z,4.85
2019-05-18T03:49:50.360Z,4.72
2019-05-18T03:52:20.992Z,5.08
2019-05-18T03:54:51.498Z,5.47
2019-05-18T03:57:23.575Z,5.55
2019-05-18T03:59:54.272Z,5.03
2019-05-18T04:02:24.847Z,4.78
2019-05-18T04:04:57.299Z,4.80
2019-05-18T04:07:28.961Z,4.50
2019-05-18T04:09:59.497Z,4.60
2019-05-18T04:12:31.173Z,4.97
2019-05-18T04:15:01.732Z,4.53
2019-05-18T04:17:32.475Z,4.97
2019-05-18T04:20:03.023Z,5.42
2019-05-18T04:22:33.541Z,4.53
2019-05-18T04:25:04.268Z,5.28
2019-05-18T04:27:34.819Z,4.75
2019-05-18T04:30:05.968Z,4.40
2019-05-18T04:32:37.957Z,5.05
2019-05-18T04:35:09.123Z,4.95
2019-05-18T04:37:39.721Z,5.60
2019-05-18T04:40:10.915Z,4.80
2019-05-18T04:42:43.279Z,4.47
2019-05-18T04:45:14.781Z,4.97
2019-05-18T04:47:48.493Z,5.47
2019-05-18T04:50:18.006Z,5.05
2019-05-18T04:52:48.609Z,4.92
2019-05-18T04:55:19.280Z,5.47
2019-05-18T04:57:49.933Z,5.12
2019-05-18T05:00:20.526Z,5.83
2019-05-18T05:02:52.196Z,5.58
2019-05-18T05:05:22.778Z,5.35
2019-05-18T05:07:53.381Z,5.35
2019-05-18T05:10:23.940Z,6.22
2019-05-18T05:12:54.629Z,7.55
2019-05-18T05:15:25.281Z,6.17
2019-05-18T05:17:55.891Z,5.90
2019-05-18T05:20:26.466Z,6.70
2019-05-18T05:22:57.045Z,7.20
2019-05-18T05:25:29.440Z,7.87
2019-05-18T05:27:59.979Z,5.83
2019-05-18T05:30:30.616Z,6.15
2019-05-18T05:33:01.239Z,5.83
2019-05-18T05:35:31.802Z,7.50
2019-05-18T05:38:03.708Z,7.05
2019-05-18T05:40:34.300Z,8.38
2019-05-18T05:43:04.832Z,6.70
2019-05-18T05:45:35.430Z,7.65
2019-05-18T05:48:06.055Z,9.08
2019-05-18T05:50:36.908Z,7.70
2019-05-18T05:53:10.684Z,9.78
2019-05-18T05:55:42.563Z,8.80
2019-05-18T05:58:13.235Z,8.63
2019-05-18T06:00:43.781Z,7.67
2019-05-18T06:03:14.341Z,6.97
2019-05-18T06:05:45.005Z,7.80
2019-05-18T06:08:15.584Z,8.18
2019-05-18T06:10:47.643Z,8.78
2019-05-18T06:13:18.269Z,7.45
2019-05-18T06:15:53.686Z,7.41
2019-05-18T06:18:24.279Z,6.85
2019-05-18T06:20:54.955Z,7.67
2019-05-18T06:23:25.500Z,7.17
2019-05-18T06:25:57.153Z,6.58
2019-05-18T06:28:27.784Z,7.35
2019-05-18T06:30:58.460Z,6.42
2019-05-18T06:33:29.036Z,6.65
2019-05-18T06:35:59.593Z,5.50
2019-05-18T06:38:30.153Z,6.80
2019-05-18T06:41:00.739Z,6.37
2019-05-18T06:43:31.266Z,5.85
2019-05-18T06:46:01.829Z,6.67
2019-05-18T06:48:32.330Z,5.28
2019-05-18T06:51:07.069Z,5.65
2019-05-18T06:53:36.492Z,5.03
2019-05-18T06:56:07.146Z,3.80
2019-05-18T06:58:39.004Z,4.40
2019-05-18T07:01:09.588Z,3.90
2019-05-18T07:03:44.595Z,3.80
2019-05-18T07:06:13.719Z,3.55
2019-05-18T07:08:45.730Z,5.70
2019-05-18T07:11:16.305Z,3.80
2019-05-18T07:13:47.005Z,3.75
2019-05-18T07:16:17.659Z,4.60
2019-05-18T07:18:48.209Z,5.37
2019-05-18T07:21:22.441Z,5.67
2019-05-18T07:23:51.127Z,5.55
2019-05-18T07:26:21.726Z,4.78
2019-05-18T07:28:52.311Z,5.75
2019-05-18T07:31:23.048Z,4.45
2019-05-18T07:33:53.695Z,4.92
2019-05-18T07:36:26.238Z,5.05
2019-05-18T07:38:56.901Z,5.75
2019-05-18T07:41:27.507Z,4.97
2019-05-18T07:43:58.135Z,5.03
2019-05-18T07:46:28.787Z,5.30
2019-05-18T07:48:59.336Z,4.55
2019-05-18T07:51:36.967Z,4.53
2019-05-18T07:54:02.807Z,3.55
2019-05-18T07:56:33.600Z,3.60
2019-05-18T07:59:04.397Z,3.02
2019-05-18T08:01:36.437Z,2.87
2019-05-18T08:04:07.018Z,2.67
2019-05-18T08:06:37.637Z,2.52
2019-05-18T08:09:09.346Z,2.30
2019-05-18T08:11:39.950Z,2.92
2019-05-18T08:14:10.517Z,3.35
2019-05-18T08:16:41.174Z,3.77
2019-05-18T08:19:11.747Z,3.35
2019-05-18T08:21:52.641Z,2.60
2019-05-18T08:24:14.779Z,3.00
2019-05-18T08:26:45.342Z,3.22
2019-05-18T08:29:17.047Z,3.20
2019-05-18T08:31:47.620Z,3.77
2019-05-18T08:34:18.163Z,3.60
2019-05-18T08:36:48.708Z,3.08
2019-05-18T08:39:19.260Z,3.10
2019-05-18T08:41:49.900Z,3.10
2019-05-18T08:44:20.682Z,2.92
2019-05-18T08:46:51.300Z,3.17
2019-05-18T08:49:21.877Z,4.72
2019-05-18T08:52:07.203Z,2.83
2019-05-18T08:54:24.974Z,2.60
2019-05-18T08:56:55.511Z,2.30
2019-05-18T08:59:26.069Z,2.65
2019-05-18T09:01:56.687Z,2.80
2019-05-18T09:04:28.360Z,6.67
2019-05-18T09:06:58.914Z,4.25
2019-05-18T09:09:29.533Z,2.55
2019-05-18T09:12:00.192Z,2.95
2019-05-18T09:14:30.706Z,3.30
2019-05-18T09:17:01.247Z,3.83
2019-05-18T09:19:32.905Z,3.62
2019-05-18T09:22:05.268Z,3.58
2019-05-18T09:24:36.160Z,3.52
2019-05-18T09:27:06.971Z,3.25
2019-05-18T09:29:37.508Z,2.90
2019-05-18T09:32:08.040Z,3.42
2019-05-18T09:34:38.580Z,3.75
2019-05-18T09:37:09.134Z,2.90
2019-05-18T09:39:39.761Z,2.65
2019-05-18T09:42:10.354Z,3.50
2019-05-18T09:44:40.900Z,3.55
2019-05-18T09:47:12.599Z,3.60
2019-05-18T09:49:43.186Z,3.45
2019-05-18T09:52:13.793Z,2.95
2019-05-18T09:54:44.470Z,3.60
2019-05-18T09:57:15.034Z,3.67
2019-05-18T09:59:45.627Z,3.80
2019-05-18T10:02:18.035Z,3.17
2019-05-18T10:04:48.601Z,3.35
2019-05-18T10:07:19.321Z,3.02
2019-05-18T10:09:51.482Z,2.92
2019-05-18T10:12:24.685Z,3.20
2019-05-18T10:14:54.442Z,3.50
2019-05-18T10:17:25.024Z,2.85
2019-05-18T10:19:55.545Z,3.50
2019-05-18T10:22:26.124Z,3.87
2019-05-18T10:24:56.785Z,4.35
2019-05-18T10:27:27.368Z,4.60
2019-05-18T10:29:57.902Z,6.40
2019-05-18T10:32:28.538Z,5.15
2019-05-18T10:34:59.119Z,5.80
2019-05-18T10:37:29.661Z,5.72
2019-05-18T10:40:01.301Z,5.60
2019-05-18T10:42:32.262Z,6.55
2019-05-18T10:45:02.876Z,6.25
2019-05-18T10:47:33.489Z,7.65
2019-05-18T10:50:04.178Z,8.15
2019-05-18T10:52:34.774Z,5.47
2019-05-18T10:55:05.903Z,5.87
2019-05-18T10:57:55.503Z,6.62
2019-05-18T11:00:26.587Z,6.42
2019-05-18T11:02:57.204Z,7.83
2019-05-18T11:05:27.754Z,8.13
2019-05-18T11:07:59.423Z,6.55
2019-05-18T11:10:29.989Z,7.90
2019-05-18T11:13:00.555Z,8.88
2019-05-18T11:15:31.121Z,8.45
2019-05-18T11:18:01.795Z,8.75
2019-05-18T11:20:32.324Z,6.72
2019-05-18T11:23:02.916Z,8.43
2019-05-18T11:25:33.569Z,9.05
2019-05-18T11:28:04.293Z,8.00
2019-05-18T11:30:34.959Z,7.00
2019-05-18T11:33:05.716Z,7.87
2019-05-18T11:35:37.387Z,6.35
2019-05-18T11:38:07.950Z,8.08
2019-05-18T11:40:38.522Z,9.13
2019-05-18T11:43:11.113Z,8.58
2019-05-18T11:45:41.706Z,8.50
2019-05-18T11:48:12.315Z,8.10
2019-05-18T11:50:42.898Z,6.62
2019-05-18T11:53:13.463Z,6.53
2019-05-18T11:55:44.039Z,6.05
2019-05-18T11:58:16.308Z,8.23
2019-05-18T12:00:47.452Z,9.00
2019-05-18T12:03:18.137Z,9.05
2019-05-18T12:05:48.728Z,9.25
2019-05-18T12:08:19.380Z,8.50
2019-05-18T12:10:50.059Z,9.50
2019-05-18T12:13:22.409Z,8.15
2019-05-18T12:15:53.160Z,6.20
2019-05-18T12:18:25.028Z,5.50
2019-05-18T12:20:55.650Z,6.90
2019-05-18T12:23:26.299Z,5.97
2019-05-18T12:25:57.023Z,5.75
2019-05-18T12:28:27.616Z,6.15
2019-05-18T12:31:01.979Z,5.67
2019-05-18T12:33:32.295Z,7.45
2019-05-18T12:36:02.900Z,6.70
2019-05-18T12:38:33.527Z,7.15
2019-05-18T12:41:05.561Z,6.97
2019-05-18T12:43:36.116Z,6.80
2019-05-18T12:46:06.681Z,7.00
2019-05-18T12:48:37.365Z,6.80
2019-05-18T12:51:07.941Z,6.85
2019-05-18T12:53:38.765Z,5.78
2019-05-18T12:56:10.592Z,6.55
2019-05-18T12:58:41.222Z,6.30
2019-05-18T13:01:11.809Z,8.60
2019-05-18T13:03:43.540Z,7.95
2019-05-18T13:06:14.285Z,7.60
2019-05-18T13:08:44.814Z,6.55
2019-05-18T13:11:15.581Z,7.53
2019-05-18T13:13:46.141Z,6.85
2019-05-18T13:16:16.723Z,7.10
2019-05-18T13:18:47.275Z,7.22
2019-05-18T13:21:18.901Z,6.03
2019-05-18T13:23:49.472Z,6.45
2019-05-18T13:26:20.129Z,6.85
2019-05-18T13:28:52.038Z,6.67
2019-05-18T13:31:22.612Z,7.30
2019-05-18T13:33:53.162Z,6.47
2019-05-18T13:36:23.899Z,5.97
2019-05-18T13:38:54.469Z,7.00
2019-05-18T13:41:26.562Z,7.05
2019-05-18T13:43:57.403Z,6.55
2019-05-18T13:46:27.978Z,6.60
2019-05-18T13:48:58.569Z,6.92
2019-05-18T13:51:30.608Z,6.33
2019-05-18T13:54:01.985Z,5.35
2019-05-18T13:56:35.105Z,6.05
2019-05-18T13:59:09.736Z,5.53
2019-05-18T14:01:41.491Z,6.05
2019-05-18T14:04:12.042Z,5.33
2019-05-18T14:06:42.734Z,5.65
2019-05-18T14:09:13.327Z,6.10
2019-05-18T14:11:44.178Z,5.10
2019-05-18T14:14:14.732Z,5.10
2019-05-18T14:16:45.291Z,5.97
2019-05-18T14:19:15.941Z,6.08
2019-05-18T14:21:46.520Z,7.33
2019-05-18T14:24:17.160Z,5.12
2019-05-18T14:26:47.754Z,4.72
2019-05-18T14:29:18.326Z,4.60
2019-05-18T14:31:48.906Z,4.45
2019-05-18T14:34:19.460Z,4.95
2019-05-18T14:36:50.050Z,5.33
2019-05-18T14:39:23.193Z,4.90
2019-05-18T14:41:52.941Z,4.42
2019-05-18T14:44:28.259Z,4.78
2019-05-18T14:46:59.112Z,4.15
2019-05-18T14:49:29.675Z,3.92
2019-05-18T14:52:00.308Z,3.37
2019-05-18T14:54:31.010Z,4.03
2019-05-18T14:57:01.585Z,3.08
2019-05-18T14:59:32.101Z,4.22
2019-05-18T15:02:02.725Z,3.77
2019-05-18T15:04:33.324Z,4.12
2019-05-18T15:07:03.938Z,4.37
2019-05-18T15:09:34.714Z,4.37
2019-05-18T15:12:06.745Z,4.33
2019-05-18T15:14:37.317Z,4.40
2019-05-18T15:17:07.920Z,4.97
2019-05-18T15:19:42.327Z,4.85
2019-05-18T15:22:13.152Z,4.17
2019-05-18T15:24:43.835Z,4.15
2019-05-18T15:27:14.429Z,3.65
2019-05-18T15:29:45.083Z,4.97
2019-05-18T15:32:15.791Z,4.40
2019-05-18T15:34:46.325Z,4.15
2019-05-18T15:37:16.991Z,4.90
2019-05-18T15:39:47.532Z,4.90
2019-05-18T15:42:18.140Z,4.37
2019-05-18T15:44:48.746Z,4.80
2019-05-18T15:47:19.332Z,4.37
2019-05-18T15:49:51.350Z,4.50
2019-05-18T15:52:40.985Z,4.42
2019-05-18T15:55:12.876Z,5.40
2019-05-18T15:57:43.448Z,5.97
2019-05-18T16:00:15.114Z,6.27
2019-05-18T16:02:45.681Z,5.17
2019-05-18T16:05:16.617Z,5.47
2019-05-18T16:07:47.414Z,5.67
2019-05-18T16:10:19.361Z,5.67
2019-05-18T16:12:49.931Z,6.37
2019-05-18T16:15:20.789Z,5.60
2019-05-18T16:17:51.378Z,5.60
2019-05-18T16:20:22.114Z,5.47
2019-05-18T16:22:52.736Z,5.78
2019-05-18T16:25:23.353Z,6.22
2019-05-18T16:27:53.894Z,5.90
2019-05-18T16:30:24.822Z,4.93
2019-05-18T16:32:55.388Z,7.35
2019-05-18T16:35:26.035Z,6.83
2019-05-18T16:37:56.883Z,5.72
2019-05-18T16:40:27.429Z,5.28
2019-05-18T16:42:58.061Z,6.10
2019-05-18T16:45:28.627Z,5.05
2019-05-18T16:47:59.233Z,4.08
2019-05-18T16:50:29.811Z,6.25
2019-05-18T16:53:00.356Z,5.22
2019-05-18T16:55:31.165Z,5.12
2019-05-18T16:58:01.747Z,4.75
2019-05-18T17:00:32.306Z,4.58
2019-05-18T17:03:02.844Z,4.80
2019-05-18T17:05:33.428Z,4.75
2019-05-18T17:08:03.976Z,5.00
2019-05-18T17:10:34.754Z,5.70
2019-05-18T17:13:05.306Z,4.62
2019-05-18T17:15:35.874Z,4.90
2019-05-18T17:18:06.592Z,4.78
2019-05-18T17:20:38.244Z,5.40
2019-05-18T17:23:08.759Z,5.47
2019-05-18T17:25:39.391Z,6.03
2019-05-18T17:28:09.928Z,6.05
2019-05-18T17:30:42.666Z,6.00
2019-05-18T17:33:12.817Z,6.15
2019-05-18T17:35:57.938Z,6.95
2019-05-18T17:38:15.797Z,7.33
2019-05-18T17:40:46.422Z,6.60
2019-05-18T17:43:17.006Z,7.62
2019-05-18T17:45:49.149Z,7.62
2019-05-18T17:48:19.701Z,7.05
2019-05-18T17:50:50.288Z,6.78
2019-05-18T17:53:20.810Z,6.87
2019-05-18T17:55:51.495Z,7.22
2019-05-18T17:58:22.149Z,7.17
2019-05-18T18:00:52.724Z,6.53
2019-05-18T18:03:23.298Z,6.30
2019-05-18T18:05:53.982Z,6.42
2019-05-18T18:08:24.487Z,5.83
2019-05-18T18:10:55.146Z,5.92
2019-05-18T18:13:25.776Z,6.75
2019-05-18T18:15:56.439Z,6.37
2019-05-18T18:18:28.129Z,6.37
2019-05-18T18:20:58.711Z,6.42
2019-05-18T18:23:29.438Z,6.35
2019-05-18T18:26:00.189Z,6.08
2019-05-18T18:28:30.781Z,5.80
2019-05-18T18:31:01.413Z,5.55
2019-05-18T18:33:32.076Z,6.15
2019-05-18T18:36:02.712Z,7.03
2019-05-18T18:38:33.255Z,7.50
2019-05-18T18:41:03.873Z,8.50
2019-05-18T18:43:34.440Z,8.08
2019-05-18T18:46:05.064Z,7.87
2019-05-18T18:48:35.631Z,7.50
2019-05-18T18:51:06.190Z,7.70
2019-05-18T18:53:36.828Z,8.10
2019-05-18T18:56:07.484Z,8.08
2019-05-18T18:58:38.044Z,6.50
2019-05-18T19:01:10.410Z,6.92
2019-05-18T19:03:40.944Z,6.08
2019-05-18T19:06:11.649Z,5.45
2019-05-18T19:08:42.131Z,5.53
2019-05-18T19:11:12.990Z,5.35
2019-05-18T19:13:45.660Z,5.72
2019-05-18T19:16:16.058Z,6.03
2019-05-18T19:18:48.103Z,6.12
2019-05-18T19:21:18.695Z,6.00
2019-05-18T19:23:49.231Z,5.90
2019-05-18T19:26:19.810Z,6.50
2019-05-18T19:28:52.268Z,6.40
2019-05-18T19:31:22.888Z,6.42
2019-05-18T19:33:53.427Z,6.37
2019-05-18T19:36:24.129Z,6.35
2019-05-18T19:38:54.758Z,6.87
2019-05-18T19:41:25.317Z,6.28
2019-05-18T19:43:55.847Z,6.22
2019-05-18T19:46:26.406Z,6.15
2019-05-18T19:48:58.983Z,6.80
2019-05-18T19:51:29.577Z,6.87
2019-05-18T19:54:19.203Z,7.12
2019-05-18T19:56:50.409Z,7.47
2019-05-18T19:59:21.249Z,7.62
2019-05-18T20:01:51.887Z,6.95
2019-05-18T20:04:22.565Z,7.25
2019-05-18T20:06:53.143Z,7.03
2019-05-18T20:09:23.793Z,7.97
2019-05-18T20:11:55.321Z,8.23
2019-05-18T20:14:25.942Z,8.10
2019-05-18T20:16:56.548Z,7.60
2019-05-18T20:19:38.705Z,7.60
2019-05-18T20:22:00.663Z,8.50
2019-05-18T20:24:32.308Z,7.95
2019-05-18T20:27:02.910Z,8.25
2019-05-18T20:29:33.432Z,8.48
2019-05-18T20:32:04.125Z,8.25
2019-05-18T20:34:34.683Z,8.65
2019-05-18T20:37:05.238Z,8.10
2019-05-18T20:39:35.897Z,8.13
2019-05-18T20:42:06.458Z,7.92
2019-05-18T20:44:36.990Z,8.58
2019-05-18T20:47:07.545Z,7.80
2019-05-18T20:49:38.102Z,8.73
2019-05-18T20:52:08.670Z,8.18
2019-05-18T20:54:39.201Z,9.38
2019-05-18T20:57:09.959Z,8.53
2019-05-18T20:59:40.490Z,8.10
2019-05-18T21:02:12.251Z,8.88
2019-05-18T21:04:42.814Z,9.10
2019-05-18T21:07:13.754Z,8.50
2019-05-18T21:09:44.324Z,8.73
2019-05-18T21:12:14.879Z,9.23
2019-05-18T21:14:45.626Z,9.08
2019-05-18T21:17:16.312Z,8.98
2019-05-18T21:19:46.831Z,9.20
2019-05-18T21:22:17.412Z,9.28
2019-05-18T21:24:49.098Z,8.80
2019-05-18T21:27:19.794Z,9.13
2019-05-18T21:29:50.465Z,8.80
2019-05-18T21:32:22.287Z,10.48
2019-05-18T21:34:52.878Z,8.90
2019-05-18T21:37:23.738Z,9.13
2019-05-18T21:39:54.464Z,8.80
2019-05-18T21:42:25.030Z,8.55
2019-05-18T21:44:55.559Z,9.38
2019-05-18T21:47:26.131Z,9.30
2019-05-18T21:49:58.798Z,8.78
2019-05-18T21:52:29.506Z,8.60
2019-05-18T21:55:00.212Z,8.90
2019-05-18T21:57:30.866Z,9.75
2019-05-18T22:00:01.385Z,7.90
2019-05-18T22:02:32.078Z,9.30
2019-05-18T22:05:02.601Z,8.58
2019-05-18T22:07:33.265Z,8.85
2019-05-18T22:10:04.429Z,8.33
2019-05-18T22:12:35.230Z,8.73
2019-05-18T22:15:08.520Z,8.05
2019-05-18T22:17:58.051Z,8.95
2019-05-18T22:20:28.562Z,8.33
2019-05-18T22:22:59.327Z,8.58
2019-05-18T22:25:29.975Z,8.65
2019-05-18T22:28:00.594Z,9.20
2019-05-18T22:30:31.264Z,8.75
2019-05-18T22:33:01.810Z,9.23
2019-05-18T22:35:32.364Z,9.53
2019-05-18T22:38:03.020Z,8.70
2019-05-18T22:40:33.607Z,8.88
2019-05-18T22:43:04.165Z,9.45
2019-05-18T22:45:34.777Z,9.58
2019-05-18T22:48:05.354Z,9.65
2019-05-18T22:50:35.873Z,8.58
2019-05-18T22:53:06.605Z,9.23
2019-05-18T22:55:37.150Z,9.35
2019-05-18T22:58:07.888Z,9.25
2019-05-18T23:00:38.461Z,8.43
2019-05-18T23:03:09.013Z,9.33
2019-05-18T23:05:39.630Z,8.90
2019-05-18T23:08:10.301Z,8.75
2019-05-18T23:10:40.827Z,9.70
2019-05-18T23:13:12.859Z,8.88
2019-05-18T23:15:43.416Z,9.53
2019-05-18T23:18:14.003Z,9.05
2019-05-18T23:20:44.655Z,8.65
2019-05-18T23:23:15.278Z,8.98
2019-05-18T23:25:45.825Z,9.70
2019-05-18T23:28:16.381Z,8.83
2019-05-18T23:30:46.988Z,9.60
2019-05-18T23:33:17.586Z,9.53
2019-05-18T23:35:48.210Z,10.00
2019-05-18T23:38:18.764Z,9.53
2019-05-18T23:40:49.377Z,9.70
2019-05-18T23:43:19.987Z,9.85
2019-05-18T23:45:50.602Z,9.73
2019-05-18T23:48:21.190Z,9.80
2019-05-18T23:50:52.832Z,10.60
2019-05-18T23:53:23.416Z,10.08
2019-05-18T23:55:53.903Z,11.60
2019-05-18T23:58:24.548Z,10.10
